Flight Track Log - Related Links

Times and Time Zones

All times are in EDT time to prevent confusion due to time zone crossing. See the POE255 flight status page for this flight to view local times or setup timezone preferences in your user account.

Time Position Orientation Groundspeed Altitude Reporting Facility
EDT Latitude Longitude Course Direction KTS MPH feet Rate Location/Type
Sun 11:57:09 AM 43.5833 -79.4000 64° Northeast 160 184 2,300  Level Toronto Center
Sun 11:58:09 AM 43.5833 -79.3333 90° East 180 207 4,500 2,450 Climbing Toronto Center
Sun 11:59:09 AM 43.6167 -79.2833 47° Northeast 190 219 7,200 2,200 Climbing Toronto Center
Sun 12:00:09 PM 43.6667 -79.2333 36° Northeast 200 230 8,900 1,700 Climbing Toronto Center
Sun 12:01:00 PM 43.8872 -78.6756 55° Northeast  Level FlightAware Approximate
Sun 12:01:09 PM 43.7167 -79.1667 44° Northeast 240 276 10,600  Level Toronto Center
Sun 12:02:00 PM 43.9306 -78.5778 64° Northeast  Level FlightAware Approximate
Sun 12:02:09 PM 43.7500 -79.0833 61° Northeast 270 311 12,300  Level Toronto Center
Sun 12:03:09 PM 43.7833 -78.9833 65° Northeast 270 311 14,000 1,700 Climbing Toronto Center
Sun 12:04:09 PM 43.8167 -78.9000 61° Northeast 280 322 15,700 1,650 Climbing Toronto Center
Sun 12:05:09 PM 43.8500 -78.7833 68° East 280 322 17,300 1,350 Climbing Toronto Center
Sun 12:06:09 PM 43.8833 -78.6833 65° Northeast 280 322 18,400 1,200 Climbing Toronto Center
Sun 12:07:09 PM 43.9167 -78.5833 65° Northeast 280 322 19,700 1,250 Climbing Toronto Center
Sun 12:08:09 PM 43.9667 -78.5000 50° Northeast 280 322 20,900 1,200 Climbing Toronto Center
Sun 12:09:09 PM 43.9833 -78.4000 77° East 280 322 22,100 1,050 Climbing Toronto Center
Sun 12:10:09 PM 44.0167 -78.3167 61° Northeast 270 311 23,000 450 Climbing Toronto Center
Sun 12:11:09 PM 44.0500 -78.2167 65° Northeast 290 334 23,000  Level Toronto Center
Sun 12:12:09 PM 44.1000 -78.1000 59° Northeast 320 368 23,000  Level Toronto Center
Sun 12:13:09 PM 44.1500 -77.9833 59° Northeast 340 391 23,000  Level Toronto Center
Sun 12:14:09 PM 44.2000 -77.8667 59° Northeast 340 391 23,000  Level Toronto Center
Sun 12:15:09 PM 44.2500 -77.7667 55° Northeast 350 403 23,000  Level Toronto Center
Sun 12:16:09 PM 44.3000 -77.6500 59° Northeast 350 403 23,000  Level Toronto Center
Sun 12:18:28 PM 44.4333 -77.4167 57° Northeast 350 403 23,000  Level Montreal Center
Sun 12:19:09 PM 44.4667 -77.3000 68° East 350 403 23,000  Level Toronto Center
Sun 12:20:09 PM 44.5167 -77.2000 55° Northeast 350 403 23,000 -250 Level Toronto Center
Sun 12:21:09 PM 44.5667 -77.0833 59° Northeast 350 403 22,500 -1,200 Descending Toronto Center
Sun 12:22:09 PM 44.6167 -76.9667 59° Northeast 350 403 20,600 -1,250 Descending Toronto Center
Sun 12:23:09 PM 44.6833 -76.8667 47° Northeast 350 403 20,000 -1,100 Descending Toronto Center
Sun 12:24:09 PM 44.7333 -76.7500 59° Northeast 340 391 18,400 -1,900 Descending Toronto Center
Sun 12:25:09 PM 44.8000 -76.6500 47° Northeast 330 380 16,200 -2,300 Descending Toronto Center
Sun 12:26:09 PM 44.8333 -76.5333 68° East 340 391 13,800 -2,300 Descending Toronto Center
Sun 12:27:09 PM 44.8833 -76.4333 55° Northeast 330 380 11,600 -1,913 Descending Toronto Center
Sun 12:28:27 PM 44.9500 -76.3500 41° Northeast 290 334 9,400 -1,391 Descending Montreal Center
Sun 12:29:27 PM 45.0000 -76.2500 55° Northeast 270 311 8,400 -950 Descending Montreal Center
Sun 12:30:27 PM 45.0333 -76.1833 55° Northeast 260 299 7,500 -900 Descending Montreal Center
Sun 12:31:27 PM 45.0833 -76.0833 55° Northeast 250 288 6,600 -1,300 Descending Montreal Center
Sun 12:32:27 PM 45.1167 -76.0167 55° Northeast 240 276 4,900 -1,100 Descending Montreal Center
Sun 12:33:27 PM 45.1667 -75.9500 43° Northeast 230 265 4,400 -550 Descending Montreal Center
Sun 12:34:27 PM 45.2000 -75.8667 60° Northeast 210 242 3,800 -700 Descending Montreal Center
Sun 12:35:27 PM 45.2333 -75.8333 35° Northeast 190 219 3,000 -950 Descending Montreal Center
Sun 12:36:27 PM 45.2500 -75.7500 74° East 170 196 1,900 -900 Descending Montreal Center
Sun 12:37:27 PM 45.2667 -75.7000 65° Northeast 130 150 1,200 -650 Descending Montreal Center
Sun 12:38:27 PM 45.2833 -75.6833 35° Northeast 120 138 600 -600 Descending Montreal Center

Login

Don't have an account? Register now (free) for customized features, flight alerts, and more!